sensor_id;sensor_type;location;lat;lon;timestamp;P1;durP1;ratioP1;P2;durP2;ratioP2
20000;SDS011;10161;41.188;-8.642;2023-04-16T00:02:22;12.90;;;6.77;;
20000;SDS011;10161;41.188;-8.642;2023-04-16T00:04:49;11.60;;;7.90;;
20000;SDS011;10161;41.188;-8.642;2023-04-16T00:07:16;11.73;;;7.43;;
20000;SDS011;10161;41.188;-8.642;2023-04-16T00:09:45;10.53;;;7.00;;
20000;SDS011;10161;41.188;-8.642;2023-04-16T00:12:11;17.00;;;7.67;;
20000;SDS011;10161;41.188;-8.642;2023-04-16T00:14:39;12.30;;;6.80;;
20000;SDS011;10161;41.188;-8.642;2023-04-16T00:17:07;13.03;;;7.53;;
20000;SDS011;10161;41.188;-8.642;2023-04-16T00:19:34;11.87;;;7.60;;
20000;SDS011;10161;41.188;-8.642;2023-04-16T00:22:02;8.73;;;6.93;;
20000;SDS011;10161;41.188;-8.642;2023-04-16T00:24:30;11.40;;;7.00;;
20000;SDS011;10161;41.188;-8.642;2023-04-16T00:26:58;16.07;;;7.90;;
20000;SDS011;10161;41.188;-8.642;2023-04-16T00:29:25;10.93;;;8.17;;
20000;SDS011;10161;41.188;-8.642;2023-04-16T00:31:52;9.40;;;7.10;;
20000;SDS011;10161;41.188;-8.642;2023-04-16T00:34:19;10.47;;;7.53;;
20000;SDS011;10161;41.188;-8.642;2023-04-16T00:36:46;12.23;;;7.67;;
20000;SDS011;10161;41.188;-8.642;2023-04-16T00:39:13;10.70;;;7.13;;
20000;SDS011;10161;41.188;-8.642;2023-04-16T00:41:41;13.73;;;8.07;;
20000;SDS011;10161;41.188;-8.642;2023-04-16T00:44:10;10.80;;;8.03;;
20000;SDS011;10161;41.188;-8.642;2023-04-16T00:46:37;12.10;;;7.83;;
20000;SDS011;10161;41.188;-8.642;2023-04-16T00:49:05;9.90;;;8.00;;
20000;SDS011;10161;41.188;-8.642;2023-04-16T00:51:33;9.43;;;7.93;;
20000;SDS011;10161;41.188;-8.642;2023-04-16T00:54:00;9.67;;;7.90;;
20000;SDS011;10161;41.188;-8.642;2023-04-16T00:56:27;9.70;;;7.87;;
20000;SDS011;10161;41.188;-8.642;2023-04-16T00:58:54;15.23;;;7.83;;
20000;SDS011;10161;41.188;-8.642;2023-04-16T01:01:23;13.60;;;8.17;;
20000;SDS011;10161;41.188;-8.642;2023-04-16T01:03:50;12.37;;;8.27;;
20000;SDS011;10161;41.188;-8.642;2023-04-16T01:06:17;14.00;;;8.47;;
20000;SDS011;10161;41.188;-8.642;2023-04-16T01:08:45;11.70;;;7.33;;
20000;SDS011;10161;41.188;-8.642;2023-04-16T01:11:13;12.20;;;7.77;;
20000;SDS011;10161;41.188;-8.642;2023-04-16T01:13:40;12.13;;;7.63;;
20000;SDS011;10161;41.188;-8.642;2023-04-16T01:16:07;14.07;;;8.43;;
20000;SDS011;10161;41.188;-8.642;2023-04-16T01:18:36;13.30;;;8.00;;
20000;SDS011;10161;41.188;-8.642;2023-04-16T01:21:05;11.60;;;7.30;;
20000;SDS011;10161;41.188;-8.642;2023-04-16T01:23:32;9.13;;;6.47;;
20000;SDS011;10161;41.188;-8.642;2023-04-16T01:25:59;10.07;;;7.50;;
20000;SDS011;10161;41.188;-8.642;2023-04-16T01:28:26;9.80;;;6.70;;
20000;SDS011;10161;41.188;-8.642;2023-04-16T01:30:53;10.50;;;6.83;;
20000;SDS011;10161;41.188;-8.642;2023-04-16T01:33:20;9.00;;;6.60;;
20000;SDS011;10161;41.188;-8.642;2023-04-16T01:35:47;9.40;;;6.80;;
20000;SDS011;10161;41.188;-8.642;2023-04-16T01:38:15;10.07;;;7.00;;
20000;SDS011;10161;41.188;-8.642;2023-04-16T01:40:43;7.67;;;6.73;;
20000;SDS011;10161;41.188;-8.642;2023-04-16T01:43:10;10.57;;;7.03;;
20000;SDS011;10161;41.188;-8.642;2023-04-16T01:45:38;8.63;;;5.57;;
20000;SDS011;10161;41.188;-8.642;2023-04-16T01:48:05;11.50;;;6.43;;
20000;SDS011;10161;41.188;-8.642;2023-04-16T01:50:32;9.40;;;6.90;;
20000;SDS011;10161;41.188;-8.642;2023-04-16T01:53:00;7.03;;;6.27;;
20000;SDS011;10161;41.188;-8.642;2023-04-16T01:55:30;9.00;;;6.30;;
20000;SDS011;10161;41.188;-8.642;2023-04-16T01:57:57;9.17;;;6.13;;
20000;SDS011;10161;41.188;-8.642;2023-04-16T02:00:25;8.83;;;5.13;;
20000;SDS011;10161;41.188;-8.642;2023-04-16T02:02:51;7.80;;;5.40;;
20000;SDS011;10161;41.188;-8.642;2023-04-16T02:05:18;6.77;;;5.53;;
20000;SDS011;10161;41.188;-8.642;2023-04-16T02:07:47;8.13;;;5.03;;
20000;SDS011;10161;41.188;-8.642;2023-04-16T02:10:13;7.23;;;4.77;;
20000;SDS011;10161;41.188;-8.642;2023-04-16T02:12:43;5.47;;;4.50;;
20000;SDS011;10161;41.188;-8.642;2023-04-16T02:15:10;7.13;;;5.30;;
20000;SDS011;10161;41.188;-8.642;2023-04-16T02:17:39;8.90;;;4.80;;
20000;SDS011;10161;41.188;-8.642;2023-04-16T02:20:08;6.50;;;4.73;;
20000;SDS011;10161;41.188;-8.642;2023-04-16T02:22:35;7.07;;;4.70;;
20000;SDS011;10161;41.188;-8.642;2023-04-16T02:25:04;6.50;;;5.10;;
20000;SDS011;10161;41.188;-8.642;2023-04-16T02:27:31;8.47;;;5.10;;
20000;SDS011;10161;41.188;-8.642;2023-04-16T02:30:00;6.77;;;5.23;;
20000;SDS011;10161;41.188;-8.642;2023-04-16T02:32:28;8.67;;;5.60;;
20000;SDS011;10161;41.188;-8.642;2023-04-16T02:34:55;7.50;;;5.03;;
20000;SDS011;10161;41.188;-8.642;2023-04-16T02:37:22;6.20;;;5.30;;
20000;SDS011;10161;41.188;-8.642;2023-04-16T02:39:50;6.13;;;5.13;;
20000;SDS011;10161;41.188;-8.642;2023-04-16T02:42:17;5.20;;;4.60;;
20000;SDS011;10161;41.188;-8.642;2023-04-16T02:44:44;6.77;;;5.60;;
20000;SDS011;10161;41.188;-8.642;2023-04-16T02:47:14;8.70;;;5.43;;
20000;SDS011;10161;41.188;-8.642;2023-04-16T02:49:42;8.43;;;5.07;;
20000;SDS011;10161;41.188;-8.642;2023-04-16T02:52:09;8.10;;;5.90;;
20000;SDS011;10161;41.188;-8.642;2023-04-16T02:54:35;9.77;;;6.23;;
20000;SDS011;10161;41.188;-8.642;2023-04-16T02:57:02;8.47;;;6.07;;
20000;SDS011;10161;41.188;-8.642;2023-04-16T02:59:30;8.20;;;5.60;;
20000;SDS011;10161;41.188;-8.642;2023-04-16T03:01:57;6.20;;;5.07;;
20000;SDS011;10161;41.188;-8.642;2023-04-16T03:04:25;8.20;;;7.30;;
20000;SDS011;10161;41.188;-8.642;2023-04-16T03:06:52;6.93;;;6.23;;
20000;SDS011;10161;41.188;-8.642;2023-04-16T03:09:19;10.30;;;6.03;;
20000;SDS011;10161;41.188;-8.642;2023-04-16T03:11:45;8.47;;;6.07;;
20000;SDS011;10161;41.188;-8.642;2023-04-16T03:14:12;9.00;;;5.60;;
20000;SDS011;10161;41.188;-8.642;2023-04-16T03:16:39;8.50;;;5.50;;
20000;SDS011;10161;41.188;-8.642;2023-04-16T03:19:06;8.13;;;6.20;;
20000;SDS011;10161;41.188;-8.642;2023-04-16T03:21:34;8.13;;;5.37;;
20000;SDS011;10161;41.188;-8.642;2023-04-16T03:24:01;6.93;;;5.77;;
20000;SDS011;10161;41.188;-8.642;2023-04-16T03:26:28;6.00;;;5.20;;
20000;SDS011;10161;41.188;-8.642;2023-04-16T03:28:55;7.37;;;4.77;;
20000;SDS011;10161;41.188;-8.642;2023-04-16T03:31:22;6.37;;;4.67;;
20000;SDS011;10161;41.188;-8.642;2023-04-16T03:33:50;5.93;;;4.70;;
20000;SDS011;10161;41.188;-8.642;2023-04-16T03:36:16;6.67;;;5.00;;
20000;SDS011;10161;41.188;-8.642;2023-04-16T03:38:45;5.33;;;4.23;;
20000;SDS011;10161;41.188;-8.642;2023-04-16T03:41:12;6.37;;;4.57;;
20000;SDS011;10161;41.188;-8.642;2023-04-16T03:43:39;6.83;;;5.07;;
20000;SDS011;10161;41.188;-8.642;2023-04-16T03:46:06;6.60;;;4.87;;
20000;SDS011;10161;41.188;-8.642;2023-04-16T03:48:33;7.43;;;4.50;;
20000;SDS011;10161;41.188;-8.642;2023-04-16T03:51:00;5.63;;;4.47;;
20000;SDS011;10161;41.188;-8.642;2023-04-16T03:53:27;6.23;;;4.60;;
20000;SDS011;10161;41.188;-8.642;2023-04-16T03:55:55;4.40;;;4.00;;
20000;SDS011;10161;41.188;-8.642;2023-04-16T03:58:23;5.83;;;4.40;;
20000;SDS011;10161;41.188;-8.642;2023-04-16T04:00:51;7.10;;;5.30;;
20000;SDS011;10161;41.188;-8.642;2023-04-16T04:03:19;6.20;;;4.50;;
20000;SDS011;10161;41.188;-8.642;2023-04-16T04:05:46;4.83;;;4.23;;
20000;SDS011;10161;41.188;-8.642;2023-04-16T04:08:13;6.93;;;3.83;;
20000;SDS011;10161;41.188;-8.642;2023-04-16T04:10:40;7.20;;;4.43;;
20000;SDS011;10161;41.188;-8.642;2023-04-16T04:13:08;5.47;;;4.20;;
20000;SDS011;10161;41.188;-8.642;2023-04-16T04:15:35;8.03;;;4.57;;
20000;SDS011;10161;41.188;-8.642;2023-04-16T04:18:02;5.33;;;3.50;;
20000;SDS011;10161;41.188;-8.642;2023-04-16T04:20:29;7.30;;;4.20;;
20000;SDS011;10161;41.188;-8.642;2023-04-16T04:22:56;4.87;;;4.20;;
20000;SDS011;10161;41.188;-8.642;2023-04-16T04:25:23;5.50;;;3.73;;
20000;SDS011;10161;41.188;-8.642;2023-04-16T04:27:50;5.10;;;4.10;;
20000;SDS011;10161;41.188;-8.642;2023-04-16T04:30:18;5.43;;;4.00;;
20000;SDS011;10161;41.188;-8.642;2023-04-16T04:32:45;6.60;;;4.20;;
20000;SDS011;10161;41.188;-8.642;2023-04-16T04:35:12;5.83;;;4.20;;
20000;SDS011;10161;41.188;-8.642;2023-04-16T04:37:40;8.20;;;3.83;;
20000;SDS011;10161;41.188;-8.642;2023-04-16T04:40:07;7.20;;;4.33;;
20000;SDS011;10161;41.188;-8.642;2023-04-16T04:42:35;3.97;;;3.57;;
20000;SDS011;10161;41.188;-8.642;2023-04-16T04:45:04;3.73;;;3.43;;
20000;SDS011;10161;41.188;-8.642;2023-04-16T04:47:33;5.43;;;4.20;;
20000;SDS011;10161;41.188;-8.642;2023-04-16T04:50:00;4.63;;;3.80;;
20000;SDS011;10161;41.188;-8.642;2023-04-16T04:52:27;5.63;;;3.60;;
20000;SDS011;10161;41.188;-8.642;2023-04-16T04:54:53;6.80;;;4.30;;
20000;SDS011;10161;41.188;-8.642;2023-04-16T04:57:20;5.70;;;3.70;;
20000;SDS011;10161;41.188;-8.642;2023-04-16T04:59:47;5.60;;;3.97;;
20000;SDS011;10161;41.188;-8.642;2023-04-16T05:02:15;5.43;;;3.77;;
20000;SDS011;10161;41.188;-8.642;2023-04-16T05:04:44;5.60;;;3.80;;
20000;SDS011;10161;41.188;-8.642;2023-04-16T05:07:11;5.40;;;3.40;;
20000;SDS011;10161;41.188;-8.642;2023-04-16T05:09:37;9.80;;;3.53;;
20000;SDS011;10161;41.188;-8.642;2023-04-16T05:12:04;4.57;;;3.60;;
20000;SDS011;10161;41.188;-8.642;2023-04-16T05:14:31;4.60;;;3.03;;
20000;SDS011;10161;41.188;-8.642;2023-04-16T05:17:00;4.20;;;3.20;;
20000;SDS011;10161;41.188;-8.642;2023-04-16T05:19:27;4.60;;;3.47;;
20000;SDS011;10161;41.188;-8.642;2023-04-16T05:21:55;3.40;;;3.10;;
20000;SDS011;10161;41.188;-8.642;2023-04-16T05:24:22;3.93;;;3.00;;
20000;SDS011;10161;41.188;-8.642;2023-04-16T05:26:49;3.57;;;2.93;;
20000;SDS011;10161;41.188;-8.642;2023-04-16T05:29:16;3.60;;;3.07;;
20000;SDS011;10161;41.188;-8.642;2023-04-16T05:31:43;4.90;;;2.90;;
20000;SDS011;10161;41.188;-8.642;2023-04-16T05:34:10;3.83;;;2.97;;
20000;SDS011;10161;41.188;-8.642;2023-04-16T05:36:37;3.90;;;3.50;;
20000;SDS011;10161;41.188;-8.642;2023-04-16T05:39:06;3.87;;;2.63;;
20000;SDS011;10161;41.188;-8.642;2023-04-16T05:41:33;4.23;;;2.60;;
20000;SDS011;10161;41.188;-8.642;2023-04-16T05:44:00;5.47;;;3.23;;
20000;SDS011;10161;41.188;-8.642;2023-04-16T05:46:26;2.43;;;2.23;;
20000;SDS011;10161;41.188;-8.642;2023-04-16T05:48:54;2.70;;;2.13;;
20000;SDS011;10161;41.188;-8.642;2023-04-16T05:51:20;3.00;;;2.43;;
20000;SDS011;10161;41.188;-8.642;2023-04-16T05:53:50;2.10;;;1.90;;
20000;SDS011;10161;41.188;-8.642;2023-04-16T05:56:18;2.47;;;2.27;;
20000;SDS011;10161;41.188;-8.642;2023-04-16T05:58:46;2.43;;;2.23;;
20000;SDS011;10161;41.188;-8.642;2023-04-16T06:01:13;2.30;;;2.10;;
20000;SDS011;10161;41.188;-8.642;2023-04-16T06:03:39;3.67;;;2.50;;
20000;SDS011;10161;41.188;-8.642;2023-04-16T06:06:06;3.00;;;2.20;;
20000;SDS011;10161;41.188;-8.642;2023-04-16T06:08:34;3.97;;;2.40;;
20000;SDS011;10161;41.188;-8.642;2023-04-16T06:11:00;4.00;;;2.73;;
20000;SDS011;10161;41.188;-8.642;2023-04-16T06:13:29;4.70;;;2.27;;
20000;SDS011;10161;41.188;-8.642;2023-04-16T06:15:56;5.80;;;2.20;;
20000;SDS011;10161;41.188;-8.642;2023-04-16T06:18:22;2.60;;;2.10;;
20000;SDS011;10161;41.188;-8.642;2023-04-16T06:20:49;2.70;;;1.90;;
20000;SDS011;10161;41.188;-8.642;2023-04-16T06:23:16;4.07;;;2.63;;
20000;SDS011;10161;41.188;-8.642;2023-04-16T06:25:43;2.97;;;2.00;;
20000;SDS011;10161;41.188;-8.642;2023-04-16T06:28:10;3.97;;;2.20;;
20000;SDS011;10161;41.188;-8.642;2023-04-16T06:30:39;1.83;;;1.73;;
20000;SDS011;10161;41.188;-8.642;2023-04-16T06:33:06;2.10;;;1.77;;
20000;SDS011;10161;41.188;-8.642;2023-04-16T06:35:33;2.13;;;1.93;;
20000;SDS011;10161;41.188;-8.642;2023-04-16T06:38:00;2.13;;;1.80;;
20000;SDS011;10161;41.188;-8.642;2023-04-16T06:40:26;2.50;;;1.80;;
20000;SDS011;10161;41.188;-8.642;2023-04-16T06:42:53;2.67;;;2.33;;
20000;SDS011;10161;41.188;-8.642;2023-04-16T06:45:21;1.90;;;1.70;;
20000;SDS011;10161;41.188;-8.642;2023-04-16T06:47:56;1.70;;;1.60;;
20000;SDS011;10161;41.188;-8.642;2023-04-16T06:50:24;1.87;;;1.70;;
20000;SDS011;10161;41.188;-8.642;2023-04-16T06:52:52;3.97;;;2.30;;
20000;SDS011;10161;41.188;-8.642;2023-04-16T06:55:19;3.47;;;1.80;;
20000;SDS011;10161;41.188;-8.642;2023-04-16T06:57:46;3.87;;;1.70;;
20000;SDS011;10161;41.188;-8.642;2023-04-16T07:00:13;2.87;;;1.90;;
20000;SDS011;10161;41.188;-8.642;2023-04-16T07:02:40;2.73;;;1.90;;
20000;SDS011;10161;41.188;-8.642;2023-04-16T07:05:09;1.87;;;1.63;;
20000;SDS011;10161;41.188;-8.642;2023-04-16T07:07:36;3.10;;;2.00;;
20000;SDS011;10161;41.188;-8.642;2023-04-16T07:10:03;2.90;;;1.70;;
20000;SDS011;10161;41.188;-8.642;2023-04-16T07:12:32;3.20;;;1.80;;
20000;SDS011;10161;41.188;-8.642;2023-04-16T07:14:59;1.67;;;1.50;;
20000;SDS011;10161;41.188;-8.642;2023-04-16T07:17:25;2.07;;;1.43;;
20000;SDS011;10161;41.188;-8.642;2023-04-16T07:19:52;1.60;;;1.50;;
20000;SDS011;10161;41.188;-8.642;2023-04-16T07:22:20;2.50;;;1.50;;
20000;SDS011;10161;41.188;-8.642;2023-04-16T07:24:47;2.90;;;1.53;;
20000;SDS011;10161;41.188;-8.642;2023-04-16T07:27:14;2.43;;;1.40;;
20000;SDS011;10161;41.188;-8.642;2023-04-16T07:29:42;1.93;;;1.60;;
20000;SDS011;10161;41.188;-8.642;2023-04-16T07:32:10;2.40;;;1.50;;
20000;SDS011;10161;41.188;-8.642;2023-04-16T07:34:37;5.03;;;1.60;;
20000;SDS011;10161;41.188;-8.642;2023-04-16T07:37:04;2.60;;;1.90;;
20000;SDS011;10161;41.188;-8.642;2023-04-16T07:39:32;1.90;;;1.60;;
20000;SDS011;10161;41.188;-8.642;2023-04-16T07:41:59;2.50;;;1.60;;
20000;SDS011;10161;41.188;-8.642;2023-04-16T07:44:26;1.83;;;1.57;;
20000;SDS011;10161;41.188;-8.642;2023-04-16T07:46:53;2.90;;;1.60;;
20000;SDS011;10161;41.188;-8.642;2023-04-16T07:49:20;2.77;;;1.60;;
20000;SDS011;10161;41.188;-8.642;2023-04-16T07:51:47;1.97;;;1.77;;
20000;SDS011;10161;41.188;-8.642;2023-04-16T07:54:13;3.83;;;2.00;;
20000;SDS011;10161;41.188;-8.642;2023-04-16T07:56:42;2.50;;;1.80;;
20000;SDS011;10161;41.188;-8.642;2023-04-16T07:59:10;2.00;;;1.50;;
20000;SDS011;10161;41.188;-8.642;2023-04-16T08:01:37;3.20;;;1.97;;
20000;SDS011;10161;41.188;-8.642;2023-04-16T08:04:04;1.90;;;1.70;;
20000;SDS011;10161;41.188;-8.642;2023-04-16T08:06:31;3.60;;;2.10;;
20000;SDS011;10161;41.188;-8.642;2023-04-16T08:08:58;3.93;;;2.20;;
20000;SDS011;10161;41.188;-8.642;2023-04-16T08:11:24;2.63;;;2.10;;
20000;SDS011;10161;41.188;-8.642;2023-04-16T08:13:53;4.27;;;2.57;;
20000;SDS011;10161;41.188;-8.642;2023-04-16T08:16:20;3.20;;;2.10;;
20000;SDS011;10161;41.188;-8.642;2023-04-16T08:18:47;2.80;;;2.00;;
20000;SDS011;10161;41.188;-8.642;2023-04-16T08:21:14;2.07;;;1.70;;
20000;SDS011;10161;41.188;-8.642;2023-04-16T08:23:41;3.33;;;1.93;;
20000;SDS011;10161;41.188;-8.642;2023-04-16T08:26:08;2.27;;;2.07;;
20000;SDS011;10161;41.188;-8.642;2023-04-16T08:28:35;4.20;;;2.63;;
20000;SDS011;10161;41.188;-8.642;2023-04-16T08:31:04;2.50;;;2.00;;
20000;SDS011;10161;41.188;-8.642;2023-04-16T08:33:31;10.37;;;2.17;;
20000;SDS011;10161;41.188;-8.642;2023-04-16T08:35:58;2.23;;;1.67;;
20000;SDS011;10161;41.188;-8.642;2023-04-16T08:38:25;3.13;;;2.00;;
20000;SDS011;10161;41.188;-8.642;2023-04-16T08:40:51;5.17;;;1.93;;
20000;SDS011;10161;41.188;-8.642;2023-04-16T08:43:19;2.03;;;1.70;;
20000;SDS011;10161;41.188;-8.642;2023-04-16T08:45:47;2.27;;;1.80;;
20000;SDS011;10161;41.188;-8.642;2023-04-16T08:48:16;3.00;;;1.87;;
20000;SDS011;10161;41.188;-8.642;2023-04-16T08:50:46;3.40;;;1.80;;
20000;SDS011;10161;41.188;-8.642;2023-04-16T08:53:15;4.37;;;2.00;;
20000;SDS011;10161;41.188;-8.642;2023-04-16T08:55:45;2.60;;;1.77;;
20000;SDS011;10161;41.188;-8.642;2023-04-16T08:58:13;2.17;;;1.70;;
20000;SDS011;10161;41.188;-8.642;2023-04-16T09:00:41;2.40;;;1.67;;
20000;SDS011;10161;41.188;-8.642;2023-04-16T09:03:10;2.50;;;1.87;;
20000;SDS011;10161;41.188;-8.642;2023-04-16T09:05:39;3.20;;;2.00;;
20000;SDS011;10161;41.188;-8.642;2023-04-16T09:08:07;3.83;;;1.90;;
20000;SDS011;10161;41.188;-8.642;2023-04-16T09:10:34;3.30;;;1.80;;
20000;SDS011;10161;41.188;-8.642;2023-04-16T09:13:01;3.13;;;1.93;;
20000;SDS011;10161;41.188;-8.642;2023-04-16T09:15:28;2.40;;;1.90;;
20000;SDS011;10161;41.188;-8.642;2023-04-16T09:17:55;2.33;;;1.67;;
20000;SDS011;10161;41.188;-8.642;2023-04-16T09:20:22;2.20;;;1.60;;
20000;SDS011;10161;41.188;-8.642;2023-04-16T09:22:51;2.97;;;1.70;;
20000;SDS011;10161;41.188;-8.642;2023-04-16T09:25:19;3.73;;;1.63;;
20000;SDS011;10161;41.188;-8.642;2023-04-16T09:27:48;1.97;;;1.60;;
20000;SDS011;10161;41.188;-8.642;2023-04-16T09:30:19;2.90;;;1.60;;
20000;SDS011;10161;41.188;-8.642;2023-04-16T09:32:47;2.10;;;1.57;;
20000;SDS011;10161;41.188;-8.642;2023-04-16T09:35:14;4.47;;;1.97;;
20000;SDS011;10161;41.188;-8.642;2023-04-16T09:37:42;1.70;;;1.60;;
20000;SDS011;10161;41.188;-8.642;2023-04-16T09:40:11;1.97;;;1.60;;
20000;SDS011;10161;41.188;-8.642;2023-04-16T09:42:41;3.30;;;1.60;;
20000;SDS011;10161;41.188;-8.642;2023-04-16T09:45:08;2.80;;;1.70;;
20000;SDS011;10161;41.188;-8.642;2023-04-16T09:47:40;2.50;;;1.47;;
20000;SDS011;10161;41.188;-8.642;2023-04-16T09:50:08;2.53;;;1.80;;
20000;SDS011;10161;41.188;-8.642;2023-04-16T09:52:36;1.83;;;1.53;;
20000;SDS011;10161;41.188;-8.642;2023-04-16T09:55:03;5.20;;;1.90;;
20000;SDS011;10161;41.188;-8.642;2023-04-16T09:57:32;1.90;;;1.63;;
20000;SDS011;10161;41.188;-8.642;2023-04-16T10:00:03;2.27;;;1.83;;
20000;SDS011;10161;41.188;-8.642;2023-04-16T10:02:33;2.70;;;1.87;;
20000;SDS011;10161;41.188;-8.642;2023-04-16T10:05:03;2.13;;;1.70;;
20000;SDS011;10161;41.188;-8.642;2023-04-16T10:07:32;2.60;;;1.63;;
20000;SDS011;10161;41.188;-8.642;2023-04-16T10:10:00;2.10;;;1.60;;
20000;SDS011;10161;41.188;-8.642;2023-04-16T10:12:27;2.57;;;2.23;;
20000;SDS011;10161;41.188;-8.642;2023-04-16T10:14:56;6.60;;;2.03;;
20000;SDS011;10161;41.188;-8.642;2023-04-16T10:17:23;3.57;;;1.87;;
20000;SDS011;10161;41.188;-8.642;2023-04-16T10:19:50;2.10;;;1.80;;
20000;SDS011;10161;41.188;-8.642;2023-04-16T10:22:17;3.60;;;1.93;;
20000;SDS011;10161;41.188;-8.642;2023-04-16T10:24:44;2.23;;;1.53;;
20000;SDS011;10161;41.188;-8.642;2023-04-16T10:27:12;3.03;;;1.90;;
20000;SDS011;10161;41.188;-8.642;2023-04-16T10:29:39;1.47;;;1.37;;
20000;SDS011;10161;41.188;-8.642;2023-04-16T10:32:08;3.50;;;1.53;;
20000;SDS011;10161;41.188;-8.642;2023-04-16T10:34:34;2.93;;;1.57;;
20000;SDS011;10161;41.188;-8.642;2023-04-16T10:37:01;1.57;;;1.40;;
20000;SDS011;10161;41.188;-8.642;2023-04-16T10:39:28;4.80;;;1.80;;
20000;SDS011;10161;41.188;-8.642;2023-04-16T10:42:06;1.90;;;1.40;;
20000;SDS011;10161;41.188;-8.642;2023-04-16T10:44:33;4.63;;;2.20;;
20000;SDS011;10161;41.188;-8.642;2023-04-16T10:47:00;2.80;;;1.70;;
20000;SDS011;10161;41.188;-8.642;2023-04-16T10:49:29;2.80;;;1.90;;
20000;SDS011;10161;41.188;-8.642;2023-04-16T10:51:56;3.40;;;2.37;;
20000;SDS011;10161;41.188;-8.642;2023-04-16T10:54:24;2.47;;;1.50;;
20000;SDS011;10161;41.188;-8.642;2023-04-16T10:56:52;1.70;;;1.60;;
20000;SDS011;10161;41.188;-8.642;2023-04-16T10:59:19;3.27;;;1.90;;
20000;SDS011;10161;41.188;-8.642;2023-04-16T11:01:48;2.37;;;1.70;;
20000;SDS011;10161;41.188;-8.642;2023-04-16T11:04:26;1.97;;;1.77;;
20000;SDS011;10161;41.188;-8.642;2023-04-16T11:07:19;1.87;;;1.70;;
20000;SDS011;10161;41.188;-8.642;2023-04-16T11:09:56;1.90;;;1.57;;
20000;SDS011;10161;41.188;-8.642;2023-04-16T11:12:24;1.87;;;1.60;;
20000;SDS011;10161;41.188;-8.642;2023-04-16T11:14:53;5.80;;;2.03;;
20000;SDS011;10161;41.188;-8.642;2023-04-16T11:17:27;2.70;;;2.03;;
20000;SDS011;10161;41.188;-8.642;2023-04-16T11:19:54;4.13;;;1.73;;
20000;SDS011;10161;41.188;-8.642;2023-04-16T11:22:23;2.27;;;1.80;;
20000;SDS011;10161;41.188;-8.642;2023-04-16T11:24:52;3.00;;;2.03;;
20000;SDS011;10161;41.188;-8.642;2023-04-16T11:27:20;2.17;;;1.87;;
20000;SDS011;10161;41.188;-8.642;2023-04-16T11:29:55;3.37;;;1.93;;
20000;SDS011;10161;41.188;-8.642;2023-04-16T11:32:22;1.80;;;1.70;;
20000;SDS011;10161;41.188;-8.642;2023-04-16T11:34:49;1.73;;;1.63;;
20000;SDS011;10161;41.188;-8.642;2023-04-16T11:37:18;1.63;;;1.50;;
20000;SDS011;10161;41.188;-8.642;2023-04-16T11:39:48;1.70;;;1.60;;
20000;SDS011;10161;41.188;-8.642;2023-04-16T11:42:19;2.30;;;2.10;;
20000;SDS011;10161;41.188;-8.642;2023-04-16T11:44:51;2.60;;;1.90;;
20000;SDS011;10161;41.188;-8.642;2023-04-16T11:47:19;2.27;;;1.90;;
20000;SDS011;10161;41.188;-8.642;2023-04-16T11:49:47;2.57;;;1.87;;
20000;SDS011;10161;41.188;-8.642;2023-04-16T11:52:23;1.90;;;1.70;;
20000;SDS011;10161;41.188;-8.642;2023-04-16T11:54:53;3.00;;;1.60;;
20000;SDS011;10161;41.188;-8.642;2023-04-16T11:57:24;2.27;;;1.80;;
20000;SDS011;10161;41.188;-8.642;2023-04-16T11:59:51;2.70;;;1.87;;
20000;SDS011;10161;41.188;-8.642;2023-04-16T12:02:32;2.67;;;1.70;;
20000;SDS011;10161;41.188;-8.642;2023-04-16T12:05:00;2.60;;;1.67;;
20000;SDS011;10161;41.188;-8.642;2023-04-16T12:07:27;2.93;;;1.77;;
20000;SDS011;10161;41.188;-8.642;2023-04-16T12:10:05;2.07;;;1.70;;
20000;SDS011;10161;41.188;-8.642;2023-04-16T12:12:33;1.80;;;1.70;;
20000;SDS011;10161;41.188;-8.642;2023-04-16T12:15:00;2.60;;;1.90;;
20000;SDS011;10161;41.188;-8.642;2023-04-16T12:17:28;2.57;;;2.00;;
20000;SDS011;10161;41.188;-8.642;2023-04-16T12:19:55;2.83;;;2.10;;
20000;SDS011;10161;41.188;-8.642;2023-04-16T12:22:27;2.77;;;1.70;;
20000;SDS011;10161;41.188;-8.642;2023-04-16T12:24:55;2.37;;;1.80;;
20000;SDS011;10161;41.188;-8.642;2023-04-16T12:27:26;2.60;;;2.20;;
20000;SDS011;10161;41.188;-8.642;2023-04-16T12:30:08;3.17;;;2.80;;
20000;SDS011;10161;41.188;-8.642;2023-04-16T12:32:36;2.40;;;2.17;;
20000;SDS011;10161;41.188;-8.642;2023-04-16T12:35:03;2.50;;;1.90;;
20000;SDS011;10161;41.188;-8.642;2023-04-16T12:37:30;2.20;;;1.83;;
20000;SDS011;10161;41.188;-8.642;2023-04-16T12:39:57;2.30;;;2.07;;
20000;SDS011;10161;41.188;-8.642;2023-04-16T12:42:25;2.97;;;2.27;;
20000;SDS011;10161;41.188;-8.642;2023-04-16T12:44:57;3.20;;;2.10;;
20000;SDS011;10161;41.188;-8.642;2023-04-16T12:47:25;3.00;;;2.10;;
20000;SDS011;10161;41.188;-8.642;2023-04-16T12:49:52;3.03;;;2.13;;
20000;SDS011;10161;41.188;-8.642;2023-04-16T12:52:19;2.13;;;1.93;;
20000;SDS011;10161;41.188;-8.642;2023-04-16T12:54:46;2.10;;;1.90;;
20000;SDS011;10161;41.188;-8.642;2023-04-16T12:57:13;4.20;;;2.40;;
20000;SDS011;10161;41.188;-8.642;2023-04-16T12:59:42;2.77;;;2.17;;
20000;SDS011;10161;41.188;-8.642;2023-04-16T13:02:10;2.90;;;2.00;;
20000;SDS011;10161;41.188;-8.642;2023-04-16T13:04:37;2.90;;;2.03;;
20000;SDS011;10161;41.188;-8.642;2023-04-16T13:07:04;3.60;;;2.53;;
20000;SDS011;10161;41.188;-8.642;2023-04-16T13:09:31;2.37;;;2.17;;
20000;SDS011;10161;41.188;-8.642;2023-04-16T13:11:57;2.43;;;1.90;;
20000;SDS011;10161;41.188;-8.642;2023-04-16T13:14:24;2.93;;;2.00;;
20000;SDS011;10161;41.188;-8.642;2023-04-16T13:16:53;3.13;;;2.00;;
20000;SDS011;10161;41.188;-8.642;2023-04-16T13:19:20;2.07;;;1.87;;
20000;SDS011;10161;41.188;-8.642;2023-04-16T13:21:46;2.43;;;2.00;;
20000;SDS011;10161;41.188;-8.642;2023-04-16T13:24:13;3.20;;;2.70;;
20000;SDS011;10161;41.188;-8.642;2023-04-16T13:26:40;5.23;;;3.30;;
20000;SDS011;10161;41.188;-8.642;2023-04-16T13:29:07;7.13;;;2.83;;
20000;SDS011;10161;41.188;-8.642;2023-04-16T13:31:35;9.63;;;3.17;;
20000;SDS011;10161;41.188;-8.642;2023-04-16T13:34:03;4.67;;;3.10;;
20000;SDS011;10161;41.188;-8.642;2023-04-16T13:36:30;7.10;;;3.10;;
20000;SDS011;10161;41.188;-8.642;2023-04-16T13:38:57;3.67;;;2.63;;
20000;SDS011;10161;41.188;-8.642;2023-04-16T13:41:24;5.60;;;2.17;;
20000;SDS011;10161;41.188;-8.642;2023-04-16T13:43:52;3.83;;;2.20;;
20000;SDS011;10161;41.188;-8.642;2023-04-16T13:46:19;4.30;;;2.80;;
20000;SDS011;10161;41.188;-8.642;2023-04-16T13:48:46;2.80;;;2.37;;
20000;SDS011;10161;41.188;-8.642;2023-04-16T13:51:14;3.50;;;2.40;;
20000;SDS011;10161;41.188;-8.642;2023-04-16T13:53:41;3.30;;;2.47;;
20000;SDS011;10161;41.188;-8.642;2023-04-16T13:56:08;4.07;;;2.70;;
20000;SDS011;10161;41.188;-8.642;2023-04-16T13:58:36;3.87;;;2.70;;
20000;SDS011;10161;41.188;-8.642;2023-04-16T14:01:03;5.70;;;2.70;;
20000;SDS011;10161;41.188;-8.642;2023-04-16T14:03:30;5.70;;;2.40;;
20000;SDS011;10161;41.188;-8.642;2023-04-16T14:06:00;5.23;;;3.10;;
20000;SDS011;10161;41.188;-8.642;2023-04-16T14:08:28;3.20;;;2.37;;
20000;SDS011;10161;41.188;-8.642;2023-04-16T14:10:55;3.00;;;2.30;;
20000;SDS011;10161;41.188;-8.642;2023-04-16T14:13:22;4.20;;;2.57;;
20000;SDS011;10161;41.188;-8.642;2023-04-16T14:15:50;5.23;;;2.80;;
20000;SDS011;10161;41.188;-8.642;2023-04-16T14:18:19;3.63;;;2.90;;
20000;SDS011;10161;41.188;-8.642;2023-04-16T14:20:46;3.97;;;2.43;;
20000;SDS011;10161;41.188;-8.642;2023-04-16T14:23:14;5.17;;;2.73;;
20000;SDS011;10161;41.188;-8.642;2023-04-16T14:25:42;6.67;;;3.00;;
20000;SDS011;10161;41.188;-8.642;2023-04-16T14:28:09;4.90;;;2.83;;
20000;SDS011;10161;41.188;-8.642;2023-04-16T14:30:36;4.70;;;2.63;;
20000;SDS011;10161;41.188;-8.642;2023-04-16T14:33:03;6.57;;;3.10;;
20000;SDS011;10161;41.188;-8.642;2023-04-16T14:35:30;6.20;;;3.27;;
20000;SDS011;10161;41.188;-8.642;2023-04-16T14:37:58;5.80;;;3.37;;